createdAt,value
2023-03-15T00:02:54.220Z,8.10
2023-03-15T00:05:53.028Z,8.10
2023-03-15T00:08:52.206Z,8.10
2023-03-15T00:11:50.699Z,8.10
2023-03-15T00:14:48.133Z,8.06
2023-03-15T00:17:46.088Z,8.08
2023-03-15T00:20:43.537Z,8.10
2023-03-15T00:23:41.388Z,8.02
2023-03-15T00:26:38.850Z,8.00
2023-03-15T00:29:36.910Z,8.00
2023-03-15T00:32:34.352Z,8.00
2023-03-15T00:35:32.167Z,8.00
2023-03-15T00:38:29.637Z,8.00
2023-03-15T00:41:27.469Z,8.00
2023-03-15T00:44:25.215Z,8.00
2023-03-15T00:47:22.892Z,7.96
2023-03-15T00:50:20.348Z,7.90
2023-03-15T00:53:18.083Z,7.90
2023-03-15T00:56:15.544Z,7.90
2023-03-15T00:59:13.344Z,7.90
2023-03-15T01:02:10.842Z,7.90
2023-03-15T01:05:08.567Z,7.90
2023-03-15T01:08:06.335Z,7.90
2023-03-15T01:11:03.795Z,7.90
2023-03-15T01:14:01.495Z,7.90
2023-03-15T01:16:58.931Z,7.90
2023-03-15T01:19:56.534Z,7.90
2023-03-15T01:22:53.975Z,7.90
2023-03-15T01:25:51.607Z,7.90
2023-03-15T01:28:49.378Z,7.82
2023-03-15T01:31:46.935Z,7.82
2023-03-15T01:34:45.112Z,7.80
2023-03-15T01:37:42.539Z,7.80
2023-03-15T01:40:40.261Z,7.80
2023-03-15T01:43:37.723Z,7.80
2023-03-15T01:46:35.438Z,7.80
2023-03-15T01:49:32.930Z,7.80
2023-03-15T01:52:30.685Z,7.80
2023-03-15T01:55:28.292Z,7.80
2023-03-15T01:58:25.761Z,7.76
2023-03-15T02:01:23.495Z,7.70
2023-03-15T02:04:25.106Z,7.70
2023-03-15T02:07:22.928Z,7.70
2023-03-15T02:10:21.099Z,7.60
2023-03-15T02:13:18.546Z,7.50
2023-03-15T02:16:16.282Z,7.50
2023-03-15T02:19:14.020Z,7.44
2023-03-15T02:22:12.463Z,7.40
2023-03-15T02:25:09.919Z,7.30
2023-03-15T02:28:07.700Z,7.30
2023-03-15T02:31:06.174Z,7.20
2023-03-15T02:34:04.161Z,7.10
2023-03-15T02:37:02.640Z,7.00
2023-03-15T02:40:00.093Z,7.00
2023-03-15T02:42:57.714Z,6.90
2023-03-15T02:45:55.197Z,6.80
2023-03-15T02:48:54.421Z,6.70
2023-03-15T02:51:52.210Z,6.60
2023-03-15T02:54:49.662Z,6.60
2023-03-15T02:57:47.333Z,6.50
2023-03-15T03:00:44.803Z,6.40
2023-03-15T03:03:42.560Z,6.40
2023-03-15T03:06:40.056Z,6.40
2023-03-15T03:09:37.879Z,6.30
2023-03-15T03:12:35.646Z,6.30
2023-03-15T03:15:33.084Z,6.20
2023-03-15T03:18:30.975Z,6.20
2023-03-15T03:21:28.466Z,6.10
2023-03-15T03:24:26.810Z,6.10
2023-03-15T03:27:24.477Z,6.10
2023-03-15T03:30:21.935Z,6.06
2023-03-15T03:33:19.697Z,6.00
2023-03-15T03:36:17.223Z,5.96
2023-03-15T03:39:14.838Z,5.90
2023-03-15T03:42:12.285Z,5.90
2023-03-15T03:45:10.057Z,5.80
2023-03-15T03:48:07.513Z,5.80
2023-03-15T03:51:05.124Z,5.80
2023-03-15T03:54:02.566Z,5.80
2023-03-15T03:57:00.301Z,5.80
2023-03-15T03:59:59.089Z,5.78
2023-03-15T04:02:56.612Z,5.78
2023-03-15T04:05:54.485Z,5.70
2023-03-15T04:08:51.931Z,5.70
2023-03-15T04:11:49.554Z,5.70
2023-03-15T04:14:47.149Z,5.70
2023-03-15T04:17:44.603Z,5.60
2023-03-15T04:20:47.241Z,5.60
2023-03-15T04:23:44.721Z,5.60
2023-03-15T04:26:43.216Z,5.60
2023-03-15T04:29:42.097Z,5.54
2023-03-15T04:32:39.838Z,5.50
2023-03-15T04:35:37.790Z,5.50
2023-03-15T04:38:35.726Z,5.40
2023-03-15T04:41:35.106Z,5.40
2023-03-15T04:44:32.713Z,5.40
2023-03-15T04:47:30.401Z,5.34
2023-03-15T04:50:27.864Z,5.30
2023-03-15T04:53:25.502Z,5.30
2023-03-15T04:56:23.229Z,5.22
2023-03-15T04:59:21.005Z,5.20
2023-03-15T05:02:18.827Z,5.18
2023-03-15T05:05:16.279Z,5.10
2023-03-15T05:08:13.907Z,5.10
2023-03-15T05:11:11.379Z,5.10
2023-03-15T05:14:09.005Z,5.10
2023-03-15T05:17:06.814Z,5.00
2023-03-15T05:20:08.244Z,5.00
2023-03-15T05:23:06.098Z,5.00
2023-03-15T05:26:03.916Z,4.90
2023-03-15T05:29:01.524Z,4.88
2023-03-15T05:31:58.983Z,4.80
2023-03-15T05:34:56.640Z,4.80
2023-03-15T05:37:54.144Z,4.80
2023-03-15T05:40:51.777Z,4.80
2023-03-15T05:43:49.247Z,4.80
2023-03-15T05:46:46.935Z,4.80
2023-03-15T05:49:44.406Z,4.80
2023-03-15T05:52:42.151Z,4.70
2023-03-15T05:55:39.589Z,4.70
2023-03-15T05:58:37.271Z,4.70
2023-03-15T06:01:35.044Z,4.70
2023-03-15T06:04:32.566Z,4.70
2023-03-15T06:07:30.474Z,4.70
2023-03-15T06:10:27.918Z,4.64
2023-03-15T06:13:26.513Z,4.68
2023-03-15T06:16:24.348Z,4.68
2023-03-15T06:19:22.416Z,4.70
2023-03-15T06:22:21.034Z,4.70
2023-03-15T06:25:18.488Z,4.70
2023-03-15T06:28:17.188Z,4.76
2023-03-15T06:31:14.818Z,4.80
2023-03-15T06:34:12.639Z,4.90
2023-03-15T06:37:10.252Z,5.00
2023-03-15T06:40:09.280Z,5.02
2023-03-15T06:43:07.137Z,5.20
2023-03-15T06:46:04.629Z,5.20
2023-03-15T06:49:02.474Z,5.30
2023-03-15T06:51:59.930Z,5.30
2023-03-15T06:54:57.769Z,5.40
2023-03-15T06:57:55.216Z,5.40
2023-03-15T07:00:52.942Z,5.50
2023-03-15T07:03:50.731Z,5.52
2023-03-15T07:06:48.217Z,5.50
2023-03-15T07:09:45.823Z,5.60
2023-03-15T07:12:43.286Z,5.70
2023-03-15T07:15:41.063Z,5.78
2023-03-15T07:18:38.525Z,5.80
2023-03-15T07:21:36.301Z,5.80
2023-03-15T07:24:33.740Z,5.80
2023-03-15T07:27:31.515Z,5.90
2023-03-15T07:30:29.311Z,5.90
2023-03-15T07:33:26.990Z,6.00
2023-03-15T07:36:24.652Z,6.10
2023-03-15T07:39:22.088Z,6.10
2023-03-15T07:42:19.876Z,6.24
2023-03-15T07:45:17.508Z,6.34
2023-03-15T07:48:14.987Z,6.36
2023-03-15T07:51:12.623Z,6.30
2023-03-15T07:54:10.098Z,6.40
2023-03-15T07:57:07.789Z,6.50
2023-03-15T08:00:06.034Z,6.58
2023-03-15T08:03:03.815Z,6.80
2023-03-15T08:06:01.452Z,7.18
2023-03-15T08:08:58.903Z,7.64
2023-03-15T08:11:56.542Z,8.42
2023-03-15T08:14:54.043Z,9.52
2023-03-15T08:17:51.656Z,10.88
2023-03-15T08:20:49.186Z,12.24
2023-03-15T08:23:46.804Z,13.62
2023-03-15T08:26:44.700Z,15.38
2023-03-15T08:29:42.242Z,16.48
2023-03-15T08:32:40.230Z,17.26
2023-03-15T08:35:37.787Z,18.06
2023-03-15T08:38:35.565Z,18.70
2023-03-15T08:41:33.126Z,18.88
2023-03-15T08:44:31.106Z,19.30
2023-03-15T08:47:28.888Z,19.90
2023-03-15T08:50:26.444Z,20.18
2023-03-15T08:53:24.143Z,20.10
2023-03-15T08:56:21.596Z,19.60
2023-03-15T08:59:29.088Z,19.00
2023-03-15T09:02:28.701Z,19.40
2023-03-15T09:05:26.517Z,19.30
2023-03-15T09:08:25.738Z,19.50
2023-03-15T09:11:23.173Z,20.28
2023-03-15T09:14:20.935Z,21.38
2023-03-15T09:17:18.366Z,22.24
2023-03-15T09:20:17.028Z,23.12
2023-03-15T09:23:14.872Z,24.24
2023-03-15T09:26:12.308Z,24.50
2023-03-15T09:29:10.300Z,25.10
2023-03-15T09:32:07.777Z,25.12
2023-03-15T09:35:05.431Z,24.50
2023-03-15T09:38:04.024Z,24.10
2023-03-15T09:41:01.863Z,23.80
2023-03-15T09:43:59.344Z,23.20
2023-03-15T09:46:57.020Z,23.30
2023-03-15T09:49:54.768Z,23.16
2023-03-15T09:52:52.195Z,22.54
2023-03-15T09:55:50.058Z,22.90
2023-03-15T09:58:47.482Z,23.06
2023-03-15T10:01:46.349Z,22.64
2023-03-15T10:04:43.871Z,22.90
2023-03-15T10:07:41.688Z,23.82
2023-03-15T10:10:39.132Z,24.44
2023-03-15T10:13:36.921Z,25.60
2023-03-15T10:16:34.662Z,26.88
2023-03-15T10:19:32.117Z,27.10
2023-03-15T10:22:29.811Z,27.18
2023-03-15T10:25:27.276Z,27.62
2023-03-15T10:28:24.883Z,26.90
2023-03-15T10:31:32.842Z,25.62
2023-03-15T10:34:38.716Z,25.66
2023-03-15T10:37:36.436Z,25.44
2023-03-15T10:40:33.883Z,25.10
2023-03-15T10:43:32.825Z,24.70
2023-03-15T10:46:30.317Z,25.20
2023-03-15T10:49:27.904Z,25.40
2023-03-15T10:52:26.406Z,24.50
2023-03-15T10:55:23.904Z,24.60
2023-03-15T10:58:23.781Z,23.60
2023-03-15T11:01:22.844Z,22.80
2023-03-15T11:04:20.480Z,20.96
2023-03-15T11:07:18.559Z,19.04
2023-03-15T11:10:18.291Z,19.54
2023-03-15T11:13:16.062Z,20.04
2023-03-15T11:16:13.524Z,19.30
2023-03-15T11:19:12.267Z,18.70
2023-03-15T11:22:09.759Z,18.84
2023-03-15T11:25:07.588Z,18.54
2023-03-15T11:28:05.028Z,17.98
2023-03-15T11:31:04.941Z,16.80
2023-03-15T11:34:02.408Z,15.96
2023-03-15T11:37:07.968Z,15.42
2023-03-15T11:40:12.244Z,15.62
2023-03-15T11:43:10.254Z,15.70
2023-03-15T11:46:08.102Z,15.70
2023-03-15T11:49:06.152Z,15.80
2023-03-15T11:52:03.878Z,15.92
2023-03-15T11:55:01.335Z,15.80
2023-03-15T11:57:59.217Z,15.58
2023-03-15T12:00:56.814Z,15.34
2023-03-15T12:03:54.299Z,15.02
2023-03-15T12:06:53.731Z,14.80
2023-03-15T12:09:52.395Z,14.78
2023-03-15T12:12:50.205Z,15.42
2023-03-15T12:15:47.657Z,16.26
2023-03-15T12:18:45.741Z,16.72
2023-03-15T12:21:43.482Z,16.50
2023-03-15T12:24:41.012Z,17.22
2023-03-15T12:27:38.636Z,17.94
2023-03-15T12:30:36.178Z,18.00
2023-03-15T12:33:33.939Z,17.24
2023-03-15T12:36:31.859Z,17.36
2023-03-15T12:39:29.326Z,17.68
2023-03-15T12:42:27.148Z,17.36
2023-03-15T12:45:24.794Z,16.68
2023-03-15T12:48:22.495Z,15.84
2023-03-15T12:51:19.953Z,15.50
2023-03-15T12:54:17.702Z,15.20
2023-03-15T12:57:15.408Z,14.66
2023-03-15T13:00:14.964Z,14.04
2023-03-15T13:03:13.621Z,13.60
2023-03-15T13:06:11.098Z,13.30
2023-03-15T13:09:08.904Z,13.02
2023-03-15T13:12:08.472Z,12.90
2023-03-15T13:15:06.161Z,12.70
2023-03-15T13:18:03.835Z,12.40
2023-03-15T13:21:01.482Z,12.20
2023-03-15T13:23:59.108Z,12.00
2023-03-15T13:26:56.850Z,11.80
2023-03-15T13:29:54.485Z,11.68
2023-03-15T13:32:52.441Z,11.54
2023-03-15T13:35:50.260Z,11.60
2023-03-15T13:38:47.716Z,11.54
2023-03-15T13:41:45.331Z,11.70
2023-03-15T13:44:42.789Z,11.80
2023-03-15T13:47:40.998Z,11.80
2023-03-15T13:50:38.458Z,11.90
2023-03-15T13:53:48.911Z,11.96
2023-03-15T13:56:49.802Z,12.46
2023-03-15T13:59:47.409Z,12.76
2023-03-15T14:02:48.123Z,13.06
2023-03-15T14:05:45.584Z,13.00
2023-03-15T14:08:43.394Z,12.90
2023-03-15T14:11:40.990Z,12.60
2023-03-15T14:14:38.832Z,12.32
2023-03-15T14:17:36.281Z,12.02
2023-03-15T14:20:34.365Z,11.70
2023-03-15T14:23:33.462Z,11.50
2023-03-15T14:26:31.339Z,11.30
2023-03-15T14:29:29.415Z,11.10
2023-03-15T14:32:27.323Z,11.00
2023-03-15T14:35:25.124Z,11.30
2023-03-15T14:38:22.571Z,11.70
2023-03-15T14:41:20.367Z,11.80
2023-03-15T14:44:18.339Z,11.70
2023-03-15T14:47:15.825Z,11.60
2023-03-15T14:50:13.472Z,11.50
2023-03-15T14:53:11.280Z,11.30
2023-03-15T14:56:09.111Z,11.10
2023-03-15T14:59:06.996Z,11.00
2023-03-15T15:02:04.605Z,11.00
2023-03-15T15:05:02.240Z,11.40
2023-03-15T15:07:59.706Z,11.70
2023-03-15T15:10:57.435Z,11.70
2023-03-15T15:13:55.535Z,11.60
2023-03-15T15:16:53.396Z,11.40
2023-03-15T15:19:51.483Z,11.30
2023-03-15T15:22:49.268Z,11.30
2023-03-15T15:25:47.350Z,11.10
2023-03-15T15:28:45.269Z,10.90
2023-03-15T15:31:43.132Z,10.70
2023-03-15T15:34:42.791Z,10.42
2023-03-15T15:37:41.868Z,10.30
2023-03-15T15:40:39.408Z,10.10
2023-03-15T15:43:37.179Z,9.90
2023-03-15T15:46:35.158Z,9.70
2023-03-15T15:49:32.960Z,9.52
2023-03-15T15:52:31.168Z,9.36
2023-03-15T15:55:29.114Z,9.22
2023-03-15T15:58:27.419Z,9.10
2023-03-15T16:01:25.240Z,9.00
2023-03-15T16:04:23.475Z,9.00
2023-03-15T16:07:21.259Z,8.96
2023-03-15T16:10:19.676Z,8.90
2023-03-15T16:13:17.437Z,8.90
2023-03-15T16:16:15.797Z,8.80
2023-03-15T16:19:13.971Z,8.64
2023-03-15T16:22:11.447Z,8.52
2023-03-15T16:25:10.375Z,8.40
2023-03-15T16:28:10.033Z,8.30
2023-03-15T16:31:08.674Z,8.20
2023-03-15T16:34:06.971Z,8.10
2023-03-15T16:37:05.050Z,8.00
2023-03-15T16:40:06.513Z,7.90
2023-03-15T16:43:10.270Z,7.80
2023-03-15T16:46:08.222Z,7.70
2023-03-15T16:49:06.786Z,7.70
2023-03-15T16:52:05.359Z,7.60
2023-03-15T16:55:05.100Z,7.60
2023-03-15T16:58:04.894Z,7.56
2023-03-15T17:01:04.810Z,7.50
2023-03-15T17:04:04.249Z,7.46
2023-03-15T17:07:03.781Z,7.40
2023-03-15T17:10:02.302Z,7.30
2023-03-15T17:13:01.309Z,7.20
2023-03-15T17:16:00.757Z,7.20
2023-03-15T17:18:58.779Z,7.10
2023-03-15T17:21:56.487Z,7.00
2023-03-15T17:24:55.034Z,6.84
2023-03-15T17:27:55.279Z,6.70
2023-03-15T17:30:59.737Z,6.60
2023-03-15T17:34:10.045Z,6.50
2023-03-15T17:37:09.653Z,6.40
2023-03-15T17:40:13.518Z,6.30
2023-03-15T17:43:11.919Z,6.20
2023-03-15T17:46:10.596Z,6.20
2023-03-15T17:49:12.878Z,6.10
2023-03-15T17:52:12.110Z,6.00
2023-03-15T17:55:11.100Z,6.00
2023-03-15T17:58:11.287Z,5.90
2023-03-15T18:01:12.100Z,5.90
2023-03-15T18:04:14.116Z,5.90
2023-03-15T18:07:14.176Z,5.80
2023-03-15T18:10:13.151Z,5.80
2023-03-15T18:13:12.362Z,5.72
2023-03-15T18:16:12.578Z,5.70
2023-03-15T18:19:11.162Z,5.70
2023-03-15T18:22:10.265Z,5.70
2023-03-15T18:25:09.050Z,5.66
2023-03-15T18:28:08.511Z,5.60
2023-03-15T18:31:07.557Z,5.60
2023-03-15T18:34:07.523Z,5.60
2023-03-15T18:37:07.180Z,5.60
2023-03-15T18:40:06.760Z,5.60
2023-03-15T18:43:07.428Z,5.60
2023-03-15T18:46:06.853Z,5.50
2023-03-15T18:49:06.532Z,5.50
2023-03-15T18:52:05.649Z,5.60
2023-03-15T18:55:04.654Z,5.60
2023-03-15T18:58:03.910Z,5.58
2023-03-15T19:01:02.103Z,5.58
2023-03-15T19:04:01.531Z,5.60
2023-03-15T19:07:00.223Z,5.60
2023-03-15T19:09:59.317Z,5.60
2023-03-15T19:12:59.927Z,5.60
2023-03-15T19:15:58.943Z,5.60
2023-03-15T19:18:58.967Z,5.60
2023-03-15T19:21:57.700Z,5.60
2023-03-15T19:24:58.134Z,5.58
2023-03-15T19:27:58.449Z,5.60
2023-03-15T19:30:59.421Z,5.60
2023-03-15T19:33:58.676Z,5.60
2023-03-15T19:36:58.467Z,5.60
2023-03-15T19:39:57.768Z,5.60
2023-03-15T19:42:56.637Z,5.70
2023-03-15T19:49:17.465Z,5.68
2023-03-15T19:52:17.305Z,5.68
2023-03-15T19:55:16.107Z,5.70
2023-03-15T19:58:15.478Z,5.70
2023-03-15T20:01:18.336Z,5.70
2023-03-15T20:04:17.569Z,5.70
2023-03-15T20:07:18.193Z,5.70
2023-03-15T20:10:19.161Z,5.70
2023-03-15T20:13:18.368Z,5.70
2023-03-15T20:16:17.521Z,5.70
2023-03-15T20:19:15.955Z,5.70
2023-03-15T20:22:16.784Z,5.70
2023-03-15T20:25:16.000Z,5.70
2023-03-15T20:28:15.403Z,5.70
2023-03-15T20:31:15.484Z,5.70
2023-03-15T20:34:18.491Z,5.70
2023-03-15T20:37:19.555Z,5.62
2023-03-15T20:40:22.543Z,5.66
2023-03-15T20:43:22.165Z,5.68
2023-03-15T20:46:24.646Z,5.66
2023-03-15T20:49:23.916Z,5.70
2023-03-15T20:52:26.313Z,5.70
2023-03-15T20:55:26.170Z,5.70
2023-03-15T20:58:28.304Z,5.70
2023-03-15T21:01:27.212Z,5.70
2023-03-15T21:04:30.613Z,5.70
2023-03-15T21:07:31.109Z,5.70
2023-03-15T21:10:32.567Z,5.70
2023-03-15T21:13:37.250Z,5.70
2023-03-15T21:16:36.735Z,5.70
2023-03-15T21:19:35.973Z,5.70
2023-03-15T21:22:39.211Z,5.70
2023-03-15T21:25:38.129Z,5.70
2023-03-15T21:28:36.684Z,5.60
2023-03-15T21:31:37.334Z,5.60
2023-03-15T21:34:35.138Z,5.50
2023-03-15T21:37:34.280Z,5.50
2023-03-15T21:40:32.661Z,5.40
2023-03-15T21:43:38.378Z,5.40
2023-03-15T21:46:36.499Z,5.30
2023-03-15T21:49:34.157Z,5.20
2023-03-15T21:52:32.020Z,5.10
2023-03-15T21:55:32.291Z,5.00
2023-03-15T21:58:30.626Z,4.90
2023-03-15T22:01:28.443Z,4.80
2023-03-15T22:04:29.184Z,4.72
2023-03-15T22:07:26.762Z,4.70
2023-03-15T22:10:25.169Z,4.68
2023-03-15T22:13:22.982Z,4.60
2023-03-15T22:16:20.765Z,4.60
2023-03-15T22:19:18.601Z,4.50
2023-03-15T22:22:16.073Z,4.48
2023-03-15T22:25:13.713Z,4.40
2023-03-15T22:28:11.180Z,4.32
2023-03-15T22:31:08.883Z,4.30
2023-03-15T22:34:06.362Z,4.26
2023-03-15T22:37:04.075Z,4.20
2023-03-15T22:40:01.854Z,4.20
2023-03-15T22:42:59.747Z,4.10
2023-03-15T22:45:57.438Z,4.10
2023-03-15T22:48:54.951Z,4.00
2023-03-15T22:51:52.735Z,4.00
2023-03-15T22:54:50.206Z,4.00
2023-03-15T22:57:47.983Z,4.00
2023-03-15T23:00:45.654Z,3.90
2023-03-15T23:03:43.148Z,3.90
2023-03-15T23:06:40.841Z,3.90
2023-03-15T23:09:38.289Z,3.80
2023-03-15T23:12:36.779Z,3.80
2023-03-15T23:15:34.447Z,3.80
2023-03-15T23:18:34.458Z,3.70
2023-03-15T23:21:32.248Z,3.70
2023-03-15T23:24:29.702Z,3.60
2023-03-15T23:27:27.446Z,3.60
2023-03-15T23:30:25.231Z,3.60
2023-03-15T23:33:23.444Z,3.50
2023-03-15T23:36:20.897Z,3.50
2023-03-15T23:39:18.564Z,3.40
2023-03-15T23:42:16.304Z,3.40
2023-03-15T23:45:14.279Z,3.40
2023-03-15T23:48:12.856Z,3.40
2023-03-15T23:51:12.701Z,3.40
2023-03-15T23:54:10.542Z,3.40
2023-03-15T23:57:08.070Z,3.40
